createdAt,value
2019-05-10T00:00:03.634Z,95.4
2019-05-10T00:01:03.391Z,96.3
2019-05-10T00:02:03.700Z,95.9
2019-05-10T00:03:03.463Z,97.3
2019-05-10T00:04:03.340Z,97
2019-05-10T00:05:03.292Z,97.7
2019-05-10T00:06:03.415Z,97.7
2019-05-10T00:07:03.200Z,99.6
2019-05-10T00:08:03.374Z,98.4
2019-05-10T00:09:03.390Z,98.4
2019-05-10T00:10:03.269Z,99.8
2019-05-10T00:11:03.558Z,97.5
2019-05-10T00:12:03.293Z,97.5
2019-05-10T00:13:03.141Z,98.7
2019-05-10T00:14:03.182Z,98.4
2019-05-10T00:15:03.407Z,97.7
2019-05-10T00:16:03.095Z,95.6
2019-05-10T00:17:03.500Z,96.8
2019-05-10T00:18:03.082Z,97.7
2019-05-10T00:19:03.039Z,97
2019-05-10T00:20:03.717Z,97.3
2019-05-10T00:21:03.142Z,98.9
2019-05-10T00:22:03.861Z,98.2
2019-05-10T00:23:03.688Z,100.3
2019-05-10T00:24:02.871Z,99.8
2019-05-10T00:25:05.597Z,100.8
2019-05-10T00:26:03.448Z,99.4
2019-05-10T00:27:03.400Z,101.2
2019-05-10T00:28:03.875Z,100.3
2019-05-10T00:29:03.487Z,101
2019-05-10T00:30:03.804Z,101.7
2019-05-10T00:31:03.540Z,102.6
2019-05-10T00:32:03.721Z,100.1
2019-05-10T00:33:03.509Z,103.6
2019-05-10T00:34:03.593Z,104
2019-05-10T00:35:03.698Z,103.6
2019-05-10T00:36:03.321Z,103.8
2019-05-10T00:37:03.363Z,105
2019-05-10T00:38:03.493Z,104.3
2019-05-10T00:39:03.511Z,104.5
2019-05-10T00:40:03.285Z,104.7
2019-05-10T00:41:03.403Z,104.7
2019-05-10T00:42:03.212Z,105.4
2019-05-10T00:43:03.399Z,104.5
2019-05-10T00:44:03.185Z,103.3
2019-05-10T00:45:03.794Z,101.9
2019-05-10T00:46:03.324Z,103.6
2019-05-10T00:47:03.321Z,102.9
2019-05-10T00:48:03.149Z,101.5
2019-05-10T00:49:03.062Z,101.5
2019-05-10T00:50:03.035Z,101.9
2019-05-10T00:51:03.343Z,100.3
2019-05-10T00:52:03.206Z,101.7
2019-05-10T00:53:03.896Z,100.5
2019-05-10T00:54:02.920Z,100.3
2019-05-10T00:55:19.756Z,100.3
2019-05-10T00:57:03.897Z,99.4
2019-05-10T00:58:03.613Z,99.6
2019-05-10T00:59:03.715Z,99.1
2019-05-10T01:00:03.918Z,98.9
2019-05-10T01:01:03.796Z,98.9
2019-05-10T01:02:03.787Z,98.4
2019-05-10T01:03:03.822Z,97.5
2019-05-10T01:04:03.431Z,97.3
2019-05-10T01:05:03.670Z,96.8
2019-05-10T01:06:03.665Z,96.1
2019-05-10T01:07:03.293Z,96.3
2019-05-10T01:08:03.277Z,96.3
2019-05-10T01:09:03.409Z,95.2
2019-05-10T01:10:03.214Z,96.6
2019-05-10T01:11:03.087Z,95.2
2019-05-10T01:12:03.399Z,94.5
2019-05-10T01:13:03.317Z,96.3
2019-05-10T01:14:02.938Z,94.2
2019-05-10T01:15:03.221Z,95.2
2019-05-10T01:16:03.270Z,95.9
2019-05-10T01:17:03.539Z,95.2
2019-05-10T01:18:03.087Z,96.1
2019-05-10T01:19:03.385Z,95.9
2019-05-10T01:20:02.961Z,95.4
2019-05-10T01:21:02.749Z,96.1
2019-05-10T01:22:02.971Z,97.5
2019-05-10T01:23:02.865Z,94.9
2019-05-10T01:24:02.775Z,96.6
2019-05-10T01:25:03.706Z,96.8
2019-05-10T01:26:03.975Z,95.9
2019-05-10T01:27:02.843Z,96.1
2019-05-10T01:28:03.166Z,96.3
2019-05-10T01:29:03.841Z,95.2
2019-05-10T01:30:03.792Z,97.3
2019-05-10T01:31:03.603Z,95.9
2019-05-10T01:32:03.483Z,97.5
2019-05-10T01:33:03.614Z,96.8
2019-05-10T01:34:03.449Z,97.3
2019-05-10T01:35:03.541Z,95.9
2019-05-10T01:36:03.384Z,96.1
2019-05-10T01:37:03.674Z,96.3
2019-05-10T01:38:03.081Z,97.7
2019-05-10T01:39:03.545Z,96.1
2019-05-10T01:40:03.556Z,97
2019-05-10T01:41:03.809Z,94.7
2019-05-10T01:42:03.453Z,96.6
2019-05-10T01:43:03.513Z,95.9
2019-05-10T01:44:03.255Z,95.4
2019-05-10T01:45:03.109Z,99.4
2019-05-10T01:46:03.055Z,98.2
2019-05-10T01:47:03.435Z,98.9
2019-05-10T01:48:03.411Z,99.1
2019-05-10T01:49:03.109Z,98
2019-05-10T01:50:03.319Z,98.9
2019-05-10T01:51:03.466Z,97.7
2019-05-10T01:52:03.029Z,98.4
2019-05-10T01:53:03.280Z,98.7
2019-05-10T01:54:03.296Z,98.4
2019-05-10T01:55:03.276Z,100.5
2019-05-10T01:56:02.743Z,99.6
2019-05-10T01:57:03.049Z,100.3
2019-05-10T01:58:03.024Z,100.5
2019-05-10T01:59:02.887Z,100.3
2019-05-10T02:00:02.897Z,100.8
2019-05-10T02:01:03.572Z,101.9
2019-05-10T02:02:03.731Z,99.8
2019-05-10T02:03:02.956Z,100.1
2019-05-10T02:04:03.566Z,100.3
2019-05-10T02:05:03.790Z,100.1
2019-05-10T02:06:03.626Z,101.2
2019-05-10T02:07:03.769Z,99.8
2019-05-10T02:08:03.482Z,101.5
2019-05-10T02:09:03.342Z,99.6
2019-05-10T02:10:03.776Z,98.2
2019-05-10T02:11:03.455Z,97.3
2019-05-10T02:12:03.595Z,96.8
2019-05-10T02:13:03.156Z,96.3
2019-05-10T02:14:03.441Z,95.6
2019-05-10T02:15:03.251Z,95.6
2019-05-10T02:16:03.489Z,95.2
2019-05-10T02:17:03.289Z,94.2
2019-05-10T02:18:03.459Z,93.8
2019-05-10T02:19:03.074Z,94
2019-05-10T02:20:03.224Z,93.1
2019-05-10T02:21:02.926Z,94.7
2019-05-10T02:22:03.301Z,94.2
2019-05-10T02:23:02.957Z,93.5
2019-05-10T02:24:03.945Z,93.5
2019-05-10T02:25:03.173Z,94.5
2019-05-10T02:26:10.376Z,94.9
2019-05-10T02:27:02.897Z,94.9
2019-05-10T02:28:03.898Z,97.7
2019-05-10T02:29:03.140Z,98.4
2019-05-10T02:30:03.743Z,101
2019-05-10T02:31:03.379Z,98.4
2019-05-10T02:32:03.754Z,100.8
2019-05-10T02:33:03.740Z,98.9
2019-05-10T02:34:04.078Z,97.7
2019-05-10T02:35:03.855Z,97.5
2019-05-10T02:36:03.900Z,96.3
2019-05-10T02:37:03.501Z,97.5
2019-05-10T02:38:03.718Z,96.3
2019-05-10T02:39:03.968Z,97.7
2019-05-10T02:40:03.887Z,98.9
2019-05-10T02:41:03.329Z,98.4
2019-05-10T02:42:03.906Z,101
2019-05-10T02:43:03.482Z,99.8
2019-05-10T02:44:03.498Z,99.1
2019-05-10T02:45:03.772Z,100.8
2019-05-10T02:46:03.452Z,97.7
2019-05-10T02:47:03.444Z,97.5
2019-05-10T02:48:03.036Z,96.6
2019-05-10T02:49:03.473Z,97.7
2019-05-10T02:50:03.596Z,96.3
2019-05-10T02:51:03.259Z,97.5
2019-05-10T02:52:03.115Z,96.8
2019-05-10T02:53:03.282Z,96.8
2019-05-10T02:54:03.087Z,96.1
2019-05-10T02:55:03.680Z,98
2019-05-10T02:56:03.101Z,96.6
2019-05-10T02:57:02.828Z,98
2019-05-10T02:58:03.209Z,96.6
2019-05-10T02:59:03.779Z,99.4
2019-05-10T03:00:02.907Z,99.1
2019-05-10T03:01:03.846Z,98.7
2019-05-10T03:02:02.878Z,97.7
2019-05-10T03:03:03.825Z,97.5
2019-05-10T03:04:03.065Z,99.1
2019-05-10T03:05:03.780Z,97
2019-05-10T03:06:03.700Z,98.2
2019-05-10T03:07:03.826Z,99.6
2019-05-10T03:08:03.746Z,98.4
2019-05-10T03:09:03.360Z,99.4
2019-05-10T03:10:04.052Z,98.4
2019-05-10T03:11:03.404Z,99.4
2019-05-10T03:12:03.516Z,100.5
2019-05-10T03:13:03.616Z,100.5
2019-05-10T03:14:03.468Z,100.8
2019-05-10T03:15:03.208Z,102.2
2019-05-10T03:16:03.481Z,102.2
2019-05-10T03:17:03.471Z,102.2
2019-05-10T03:18:03.152Z,102.6
2019-05-10T03:19:03.452Z,102.9
2019-05-10T03:20:03.505Z,103.1
2019-05-10T03:21:03.116Z,102.6
2019-05-10T03:22:03.250Z,104
2019-05-10T03:23:03.160Z,102.4
2019-05-10T03:24:03.216Z,102.4
2019-05-10T03:25:03.027Z,101.5
2019-05-10T03:26:03.378Z,101
2019-05-10T03:27:03.060Z,100.1
2019-05-10T03:28:03.034Z,101
2019-05-10T03:29:03.123Z,101
2019-05-10T03:30:03.255Z,99.4
2019-05-10T03:31:02.978Z,98
2019-05-10T03:32:03.105Z,98.9
2019-05-10T03:33:03.320Z,99.1
2019-05-10T03:34:02.838Z,101.2
2019-05-10T03:35:03.862Z,99.1
2019-05-10T03:36:03.916Z,99.8
2019-05-10T03:37:02.875Z,101.5
2019-05-10T03:38:03.751Z,100.8
2019-05-10T03:39:03.761Z,101
2019-05-10T03:40:03.739Z,102.9
2019-05-10T03:41:03.679Z,100.1
2019-05-10T03:42:03.370Z,101.5
2019-05-10T03:43:03.708Z,99.8
2019-05-10T03:44:03.494Z,100.1
2019-05-10T03:45:03.436Z,99.8
2019-05-10T03:46:03.608Z,99.8
2019-05-10T03:47:03.233Z,98.9
2019-05-10T03:48:04.156Z,100.8
2019-05-10T03:49:03.448Z,99.1
2019-05-10T03:50:03.330Z,102.2
2019-05-10T03:51:03.205Z,100.3
2019-05-10T03:52:03.279Z,102.6
2019-05-10T03:53:03.167Z,101.2
2019-05-10T03:54:03.234Z,101.5
2019-05-10T03:55:03.101Z,103.1
2019-05-10T03:56:03.312Z,102.6
2019-05-10T03:57:15.416Z,104
2019-05-10T03:59:03.865Z,102.6
2019-05-10T04:00:03.966Z,101.2
2019-05-10T04:01:03.783Z,101.2
2019-05-10T04:02:03.744Z,102.4
2019-05-10T04:03:03.893Z,102.9
2019-05-10T04:04:03.493Z,103.6
2019-05-10T04:05:03.881Z,102.4
2019-05-10T04:06:03.130Z,102.4
2019-05-10T04:07:03.575Z,104.7
2019-05-10T04:08:03.743Z,103.1
2019-05-10T04:09:03.725Z,104.5
2019-05-10T04:10:03.207Z,104.7
2019-05-10T04:11:03.864Z,104.3
2019-05-10T04:12:03.430Z,104
2019-05-10T04:13:03.188Z,102.6
2019-05-10T04:14:03.469Z,101.2
2019-05-10T04:15:03.520Z,101.2
2019-05-10T04:16:03.250Z,101
2019-05-10T04:17:03.234Z,100.8
2019-05-10T04:18:03.015Z,102.4
2019-05-10T04:19:03.313Z,102.2
2019-05-10T04:20:03.315Z,103.6
2019-05-10T04:21:03.331Z,101.7
2019-05-10T04:22:03.110Z,102.6
2019-05-10T04:23:02.799Z,103.3
2019-05-10T04:24:03.194Z,102.2
2019-05-10T04:25:03.229Z,104.7
2019-05-10T04:26:03.222Z,103.3
2019-05-10T04:27:03.032Z,103.1
2019-05-10T04:28:03.667Z,104.3
2019-05-10T04:29:02.918Z,102.2
2019-05-10T04:30:03.690Z,101
2019-05-10T04:31:03.566Z,101.5
2019-05-10T04:32:03.569Z,100.8
2019-05-10T04:33:03.257Z,102.2
2019-05-10T04:34:03.899Z,102.2
2019-05-10T04:35:04.067Z,101.9
2019-05-10T04:36:03.359Z,102.2
2019-05-10T04:37:03.469Z,102.4
2019-05-10T04:38:03.420Z,105
2019-05-10T04:39:03.469Z,100.8
2019-05-10T04:40:04.181Z,104.5
2019-05-10T04:41:03.209Z,102.4
2019-05-10T04:42:03.238Z,103.6
2019-05-10T04:43:03.429Z,103.3
2019-05-10T04:44:02.954Z,104.7
2019-05-10T04:45:03.186Z,104.3
2019-05-10T04:46:03.092Z,105
2019-05-10T04:47:03.287Z,104.5
2019-05-10T04:48:03.046Z,105.2
2019-05-10T04:49:02.869Z,102.2
2019-05-10T04:50:02.765Z,103.8
2019-05-10T04:51:02.931Z,101.5
2019-05-10T04:52:03.022Z,101.9
2019-05-10T04:53:02.873Z,101.2
2019-05-10T04:54:03.868Z,99.8
2019-05-10T04:55:04.099Z,101
2019-05-10T04:56:03.737Z,98.7
2019-05-10T04:57:04.049Z,99.1
2019-05-10T04:58:03.810Z,98.9
2019-05-10T04:59:03.097Z,98.9
2019-05-10T05:00:03.633Z,100.5
2019-05-10T05:01:03.762Z,100.3
2019-05-10T05:02:03.689Z,101
2019-05-10T05:03:03.491Z,101.5
2019-05-10T05:04:03.599Z,101.2
2019-05-10T05:05:03.516Z,101.2
2019-05-10T05:06:03.253Z,100.3
2019-05-10T05:07:03.355Z,104.3
2019-05-10T05:08:06.716Z,100.3
2019-05-10T05:09:03.473Z,101.7
2019-05-10T05:10:03.596Z,103.1
2019-05-10T05:11:03.458Z,103.1
2019-05-10T05:12:03.225Z,102.9
2019-05-10T05:13:03.112Z,105.2
2019-05-10T05:14:03.147Z,105.2
2019-05-10T05:15:03.474Z,105.9
2019-05-10T05:16:03.233Z,105.4
2019-05-10T05:17:03.026Z,105.2
2019-05-10T05:18:02.891Z,106.1
2019-05-10T05:19:02.907Z,105.7
2019-05-10T05:20:04.139Z,106.4
2019-05-10T05:21:03.073Z,105.9
2019-05-10T05:22:03.945Z,105.9
2019-05-10T05:23:03.099Z,107.5
2019-05-10T05:24:03.017Z,105.7
2019-05-10T05:25:04.051Z,107.3
2019-05-10T05:26:03.859Z,107.1
2019-05-10T05:27:03.881Z,105.7
2019-05-10T05:28:08.869Z,106.4
2019-05-10T05:29:03.713Z,104.7
2019-05-10T05:30:03.779Z,104.5
2019-05-10T05:31:03.499Z,105.4
2019-05-10T05:32:04.124Z,104
2019-05-10T05:33:03.254Z,105.7
2019-05-10T05:34:06.603Z,104.7
2019-05-10T05:35:03.522Z,104.7
2019-05-10T05:36:03.504Z,103.6
2019-05-10T05:37:03.565Z,103.3
2019-05-10T05:38:03.487Z,101.5
2019-05-10T05:39:02.964Z,100.5
2019-05-10T05:40:03.546Z,99.6
2019-05-10T05:41:03.287Z,98.7
2019-05-10T05:42:03.429Z,99.8
2019-05-10T05:43:10.072Z,98
2019-05-10T05:44:03.377Z,99.4
2019-05-10T05:45:03.733Z,98.7
2019-05-10T05:46:03.238Z,98.4
2019-05-10T05:47:05.333Z,98.4
2019-05-10T05:48:03.299Z,99.8
2019-05-10T05:49:03.154Z,99.6
2019-05-10T05:50:03.239Z,100.1
2019-05-10T05:51:03.143Z,101.5
2019-05-10T05:52:03.378Z,102.2
2019-05-10T05:53:02.994Z,102.6
2019-05-10T05:54:04.894Z,102.6
2019-05-10T05:55:03.185Z,101.5
2019-05-10T05:56:15.028Z,102.4
2019-05-10T05:57:03.150Z,100.3
2019-05-10T05:58:27.415Z,100.8
2019-05-10T06:00:07.093Z,101.2
2019-05-10T06:01:03.786Z,99.1
2019-05-10T06:02:09.869Z,99.6
2019-05-10T06:03:03.699Z,98.9
2019-05-10T06:04:12.980Z,99.8
2019-05-10T06:05:03.989Z,99.1
2019-05-10T06:06:23.781Z,98.2
2019-05-10T06:08:04.318Z,95.4
2019-05-10T06:09:03.577Z,95.4
2019-05-10T06:10:03.770Z,94.5
2019-05-10T06:11:03.750Z,95.4
2019-05-10T06:12:14.404Z,94.2
2019-05-10T06:13:04.186Z,93.1
2019-05-10T06:14:13.305Z,93.8
2019-05-10T06:15:03.490Z,94
2019-05-10T06:16:15.023Z,94.9
2019-05-10T06:18:12.412Z,94.7
2019-05-10T06:19:03.534Z,92.8
2019-05-10T06:20:07.999Z,93.1
2019-05-10T06:21:03.560Z,91
2019-05-10T06:22:07.207Z,91
2019-05-10T06:23:07.561Z,91.4
2019-05-10T06:24:16.083Z,91.7
2019-05-10T06:25:03.555Z,89.3
2019-05-10T06:26:03.169Z,91
2019-05-10T06:27:05.290Z,91.4
2019-05-10T06:28:02.985Z,90.3
2019-05-10T06:29:20.010Z,91.4
2019-05-10T06:30:03.084Z,91.9
2019-05-10T06:31:03.748Z,92.8
2019-05-10T06:32:03.950Z,92.6
2019-05-10T06:33:13.655Z,93.3
2019-05-10T06:34:02.996Z,92.6
2019-05-10T06:35:03.924Z,92.1
2019-05-10T06:36:03.009Z,93.5
2019-05-10T06:37:02.838Z,93.1
2019-05-10T06:38:03.580Z,93.8
2019-05-10T06:39:03.830Z,94.9
2019-05-10T06:40:04.007Z,93.5
2019-05-10T06:41:03.794Z,94.7
2019-05-10T06:42:03.559Z,95.6
2019-05-10T06:43:15.754Z,93.3
2019-05-10T06:45:16.519Z,94.5
2019-05-10T06:46:03.380Z,92.6
2019-05-10T06:47:11.525Z,92.6
2019-05-10T06:48:03.536Z,94
2019-05-10T06:49:11.171Z,93.1
2019-05-10T06:50:03.253Z,91.9
2019-05-10T06:51:12.571Z,91.9
2019-05-10T06:52:03.308Z,91.4
2019-05-10T06:53:11.504Z,95.2
2019-05-10T06:54:03.189Z,93.1
2019-05-10T06:55:04.123Z,93.8
2019-05-10T06:56:03.128Z,95.6
2019-05-10T06:57:03.228Z,96.3
2019-05-10T06:58:03.075Z,95.9
2019-05-10T06:59:26.190Z,98.7
2019-05-10T07:01:03.388Z,98.2
2019-05-10T07:02:02.933Z,98.7
2019-05-10T07:03:02.916Z,97.7
2019-05-10T07:04:03.149Z,99.4
2019-05-10T07:05:03.757Z,99.1
2019-05-10T07:06:02.810Z,99.4
2019-05-10T07:07:03.054Z,101.9
2019-05-10T07:08:20.802Z,102.2
2019-05-10T07:10:25.730Z,103.6
2019-05-10T07:12:18.588Z,103.8
2019-05-10T07:13:07.120Z,103.1
2019-05-10T07:14:04.231Z,103.6
2019-05-10T07:15:06.037Z,103.6
2019-05-10T07:16:03.495Z,103.8
2019-05-10T07:17:04.688Z,101.7
2019-05-10T07:18:04.001Z,102.6
2019-05-10T07:19:03.789Z,103.3
2019-05-10T07:20:03.733Z,104.3
2019-05-10T07:21:08.931Z,104
2019-05-10T07:22:03.277Z,104
2019-05-10T07:23:08.154Z,106.1
2019-05-10T07:24:03.412Z,104.7
2019-05-10T07:25:08.008Z,105.7
2019-05-10T07:26:03.379Z,104.5
2019-05-10T07:27:06.235Z,104.3
2019-05-10T07:28:02.871Z,103.8
2019-05-10T07:29:03.082Z,102.9
2019-05-10T07:30:03.197Z,103.3
2019-05-10T07:31:03.228Z,103.1
2019-05-10T07:32:03.235Z,102.6
2019-05-10T07:33:02.979Z,102.9
2019-05-10T07:34:03.130Z,102.2
2019-05-10T07:35:03.205Z,102.4
2019-05-10T07:36:03.199Z,104.7
2019-05-10T07:37:03.090Z,102.9
2019-05-10T07:38:03.486Z,105.4
2019-05-10T07:39:10.985Z,103.8
2019-05-10T07:40:04.029Z,104.7
2019-05-10T07:41:03.930Z,104.3
2019-05-10T07:42:09.296Z,106.1
2019-05-10T07:43:03.892Z,104.7
2019-05-10T07:44:10.838Z,106.4
2019-05-10T07:45:04.028Z,108
2019-05-10T07:46:09.256Z,106.6
2019-05-10T07:47:03.549Z,106.8
2019-05-10T07:48:10.645Z,108.7
2019-05-10T07:49:03.798Z,107.1
2019-05-10T07:50:11.788Z,109.2
2019-05-10T07:51:03.430Z,107.1
2019-05-10T07:52:04.838Z,107.5
2019-05-10T07:53:03.645Z,107.3
2019-05-10T07:54:06.795Z,104.7
2019-05-10T07:55:03.581Z,105
2019-05-10T07:56:08.642Z,103.1
2019-05-10T07:57:03.562Z,105.4
2019-05-10T07:58:07.521Z,104
2019-05-10T07:59:03.227Z,105.2
2019-05-10T08:00:06.463Z,103.8
2019-05-10T08:01:03.349Z,105.2
2019-05-10T08:02:15.100Z,103.6
2019-05-10T08:03:24.052Z,102.9
2019-05-10T08:05:15.634Z,101.7
2019-05-10T08:07:10.682Z,101
2019-05-10T08:08:02.957Z,99.1
2019-05-10T08:09:09.999Z,100.1
2019-05-10T08:10:05.154Z,99.1
2019-05-10T08:11:03.761Z,98.9
2019-05-10T08:12:05.774Z,100.5
2019-05-10T08:13:03.957Z,100.3
2019-05-10T08:14:11.533Z,99.8
2019-05-10T08:15:03.988Z,99.4
2019-05-10T08:16:23.097Z,100.5
2019-05-10T08:17:09.355Z,99.1
2019-05-10T08:18:02.308Z,99.4
2019-05-10T08:19:03.506Z,99.4
2019-05-10T08:20:03.635Z,98.9
2019-05-10T08:21:26.759Z,98.4
2019-05-10T08:23:03.402Z,98.9
2019-05-10T08:24:16.954Z,98.7
2019-05-10T08:25:03.526Z,100.1
2019-05-10T08:26:04.891Z,98.7
2019-05-10T08:27:15.213Z,100.1
2019-05-10T08:28:05.784Z,100.5
2019-05-10T08:29:17.295Z,102.4
2019-05-10T08:30:29.505Z,101.9
2019-05-10T08:32:03.292Z,102.2
2019-05-10T08:33:15.013Z,101.5
2019-05-10T08:35:18.660Z,101.2
2019-05-10T08:36:05.891Z,100.5
2019-05-10T08:37:03.842Z,98.7
2019-05-10T08:38:04.854Z,99.6
2019-05-10T08:39:14.278Z,98.2
2019-05-10T08:41:18.573Z,97.5
2019-05-10T08:42:54.351Z,98.4
2019-05-10T08:44:05.321Z,97.5
2019-05-10T08:45:09.319Z,97.5
2019-05-10T08:46:03.739Z,96.6
2019-05-10T08:47:27.994Z,96.8
2019-05-10T08:49:03.340Z,95.6
2019-05-10T08:50:57.524Z,96.8
2019-05-10T08:52:03.774Z,95.6
2019-05-10T08:53:16.953Z,95.4
2019-05-10T08:55:03.149Z,97.5
2019-05-10T08:56:24.429Z,96.8
2019-05-10T09:01:44.925Z,98.4
2019-05-10T09:03:18.931Z,98.2
2019-05-10T09:04:13.980Z,97.7
2019-05-10T09:05:03.410Z,97.7
2019-05-10T09:06:17.419Z,97.5
2019-05-10T09:08:24.964Z,95.6
2019-05-10T09:10:03.284Z,95.2
2019-05-10T09:11:07.368Z,95.6
2019-05-10T09:12:12.561Z,96.8
2019-05-10T09:13:03.803Z,96.3
2019-05-10T09:14:03.648Z,94.9
2019-05-10T09:15:14.008Z,97
2019-05-10T09:17:04.894Z,96.8
2019-05-10T09:18:07.871Z,97.7
2019-05-10T09:19:02.925Z,98.4
2019-05-10T09:20:03.094Z,99.1
2019-05-10T09:21:14.625Z,99.4
2019-05-10T09:23:13.677Z,98.9
2019-05-10T09:24:06.941Z,100.8
2019-05-10T09:25:03.396Z,99.6
2019-05-10T09:26:16.861Z,98.9
2019-05-10T09:27:03.785Z,98.4
2019-05-10T09:28:17.322Z,98.2
2019-05-10T09:30:18.746Z,98
2019-05-10T09:31:26.028Z,96.3
2019-05-10T09:33:14.804Z,98
2019-05-10T09:35:09.558Z,97.7
2019-05-10T09:36:03.464Z,98.2
2019-05-10T09:37:17.872Z,97.7
2019-05-10T09:38:03.828Z,99.4
2019-05-10T09:39:03.710Z,99.8
2019-05-10T09:40:13.822Z,98.2
2019-05-10T09:42:37.762Z,97.7
2019-05-10T09:43:15.157Z,98.7
2019-05-10T09:45:03.463Z,98.7
2019-05-10T09:46:03.222Z,97.5
2019-05-10T09:47:04.294Z,98.7
2019-05-10T09:48:03.024Z,98.4
2019-05-10T09:49:18.802Z,100.1
2019-05-10T09:50:03.845Z,99.6
2019-05-10T09:51:04.766Z,99.8
2019-05-10T09:52:19.057Z,98.7
2019-05-10T09:54:03.845Z,98.4
2019-05-10T09:55:17.712Z,97
2019-05-10T09:57:03.183Z,94.5
2019-05-10T09:58:03.788Z,96.3
2019-05-10T09:59:03.509Z,94.5
2019-05-10T10:00:03.564Z,93.8
2019-05-10T10:01:22.067Z,95.9
2019-05-10T10:02:19.069Z,93.5
2019-05-10T10:04:03.365Z,97
2019-05-10T10:05:03.289Z,94.9
2019-05-10T10:06:11.690Z,96.1
2019-05-10T10:07:03.250Z,95.9
2019-05-10T10:08:11.295Z,95.6
2019-05-10T10:09:03.263Z,98.2
2019-05-10T10:10:03.153Z,95.9
2019-05-10T10:11:18.968Z,95.6
2019-05-10T10:13:39.760Z,96.6
2019-05-10T10:15:03.724Z,99.8
2019-05-10T10:16:15.126Z,97.5
2019-05-10T10:18:03.664Z,97.5
2019-05-10T10:19:03.719Z,97.3
2019-05-10T10:20:03.803Z,95.2
2019-05-10T10:21:03.600Z,96.6
2019-05-10T10:22:13.413Z,94.5
2019-05-10T10:23:03.453Z,94.7
2019-05-10T10:24:20.451Z,94
2019-05-10T10:26:03.543Z,92.6
2019-05-10T10:27:03.380Z,92.8
2019-05-10T10:28:22.927Z,92.8
2019-05-10T10:30:21.697Z,92.4
2019-05-10T10:31:08.788Z,93.1
2019-05-10T10:32:03.357Z,92.8
2019-05-10T10:33:25.546Z,92.1
2019-05-10T10:35:03.042Z,91.9
2019-05-10T10:36:10.880Z,91.7
2019-05-10T10:37:03.236Z,91.7
2019-05-10T10:38:08.444Z,91
2019-05-10T10:39:03.191Z,90.7
2019-05-10T10:40:09.242Z,91
2019-05-10T10:41:03.046Z,91.9
2019-05-10T10:42:13.583Z,91
2019-05-10T10:44:03.223Z,93.8
2019-05-10T10:45:03.291Z,94.5
2019-05-10T10:46:04.054Z,94.5
2019-05-10T10:47:03.170Z,93.5
2019-05-10T10:48:13.267Z,93.8
2019-05-10T10:49:05.842Z,93.1
2019-05-10T10:50:13.971Z,93.3
2019-05-10T10:51:03.974Z,95.6
2019-05-10T10:52:13.762Z,95.6
2019-05-10T10:53:03.865Z,96.1
2019-05-10T10:54:03.750Z,97.5
2019-05-10T10:55:13.632Z,97.7
2019-05-10T10:56:04.327Z,97
2019-05-10T10:57:03.523Z,98.7
2019-05-10T10:58:03.495Z,100.1
2019-05-10T10:59:03.337Z,100.1
2019-05-10T11:00:03.302Z,101
2019-05-10T11:01:44.761Z,101.7
2019-05-10T11:02:34.463Z,100.5
2019-05-10T11:04:10.040Z,100.5
2019-05-10T11:05:03.563Z,99.4
2019-05-10T11:06:03.239Z,99.4
2019-05-10T11:07:11.494Z,98.4
2019-05-10T11:08:03.290Z,98.2
2019-05-10T11:09:03.064Z,99.6
2019-05-10T11:10:22.449Z,98.4
2019-05-10T11:12:02.967Z,98
2019-05-10T11:13:45.581Z,96.8
2019-05-10T11:15:03.814Z,95.6
2019-05-10T11:16:16.075Z,95.6
2019-05-10T11:17:03.755Z,94.9
2019-05-10T11:18:03.841Z,93.5
2019-05-10T11:19:15.912Z,95.4
2019-05-10T11:21:03.697Z,93.5
2019-05-10T11:22:11.141Z,94.7
2019-05-10T11:23:03.816Z,96.1
2019-05-10T11:24:04.011Z,93.8
2019-05-10T11:25:13.225Z,96.8
2019-05-10T11:26:03.801Z,96.3
2019-05-10T11:27:17.560Z,98.4
2019-05-10T11:29:03.686Z,98.4
2019-05-10T11:30:03.852Z,100.3
2019-05-10T11:31:03.037Z,98.9
2019-05-10T11:32:17.415Z,101.9
2019-05-10T11:34:06.573Z,103.1
2019-05-10T11:35:05.910Z,103.3
2019-05-10T11:36:11.734Z,104.5
2019-05-10T11:37:03.005Z,104.3
2019-05-10T11:38:16.477Z,104
2019-05-10T11:39:06.379Z,104.3
2019-05-10T11:40:03.152Z,106.1
2019-05-10T11:41:24.749Z,102.6
2019-05-10T11:43:02.863Z,104
2019-05-10T11:44:12.232Z,103.3
2019-05-10T11:45:03.672Z,103.6
2019-05-10T11:46:03.084Z,102.9
2019-05-10T11:47:03.719Z,104
2019-05-10T11:48:03.853Z,103.1
2019-05-10T11:49:03.810Z,103.1
2019-05-10T11:50:06.903Z,102.6
2019-05-10T11:51:17.693Z,102.6
2019-05-10T11:54:03.405Z,101.7
2019-05-10T11:55:03.262Z,101.2
2019-05-10T11:57:14.136Z,102.2
2019-05-10T11:59:03.052Z,103.3
2019-05-10T12:00:02.980Z,100.3
2019-05-10T12:01:22.443Z,100.5
2019-05-10T12:02:37.245Z,101.9
2019-05-10T12:02:38.500Z,100.8
2019-05-10T12:04:38.781Z,100.3
2019-05-10T12:06:12.428Z,102.4
2019-05-10T12:07:40.196Z,101
2019-05-10T12:09:05.024Z,102.2
2019-05-10T12:10:26.134Z,103.1
2019-05-10T12:12:03.894Z,102.2
2019-05-10T12:14:03.343Z,102.6
2019-05-10T12:15:04.880Z,103.3
2019-05-10T12:16:03.585Z,104.7
2019-05-10T12:17:06.857Z,105
2019-05-10T12:18:05.447Z,105.4
2019-05-10T12:20:03.221Z,108.7
2019-05-10T12:22:05.263Z,107.8
2019-05-10T12:23:03.971Z,105.7
2019-05-10T12:25:28.143Z,107.1
2019-05-10T12:27:29.454Z,103.6
2019-05-10T12:29:17.495Z,105.7
2019-05-10T12:30:03.757Z,104.7
2019-05-10T12:31:17.365Z,103.8
2019-05-10T12:33:27.824Z,101.7
2019-05-10T12:34:14.815Z,100.8
2019-05-10T12:35:03.842Z,101.9
2019-05-10T12:36:03.889Z,100.3
2019-05-10T12:37:08.646Z,100.3
2019-05-10T12:38:03.583Z,99.6
2019-05-10T12:39:03.540Z,98.7
2019-05-10T12:40:15.665Z,99.6
2019-05-10T12:41:05.796Z,99.1
2019-05-10T12:42:03.732Z,98.9
2019-05-10T12:43:03.489Z,99.1
2019-05-10T12:44:07.792Z,97
2019-05-10T12:45:03.546Z,97.5
2019-05-10T12:46:03.274Z,95.9
2019-05-10T12:47:03.699Z,97.3
2019-05-10T12:48:03.568Z,97
2019-05-10T12:49:05.196Z,97.5
2019-05-10T12:50:03.860Z,98.9
2019-05-10T12:51:16.797Z,98.4
2019-05-10T12:52:03.695Z,101
2019-05-10T12:53:18.763Z,101.2
2019-05-10T12:55:03.288Z,101
2019-05-10T12:56:03.446Z,98.7
2019-05-10T12:57:03.206Z,98
2019-05-10T12:58:02.754Z,96.8
2019-05-10T12:59:03.078Z,97.7
2019-05-10T13:00:16.125Z,98
2019-05-10T13:01:03.259Z,97.5
2019-05-10T13:02:13.369Z,100.3
2019-05-10T13:03:13.872Z,99.1
2019-05-10T13:04:17.201Z,98.9
2019-05-10T13:05:03.224Z,100.1
2019-05-10T13:06:03.079Z,99.1
2019-05-10T13:07:03.975Z,98.9
2019-05-10T13:08:03.845Z,99.1
2019-05-10T13:09:03.065Z,98
2019-05-10T13:10:10.238Z,97.7
2019-05-10T13:11:03.141Z,99.4
2019-05-10T13:12:06.542Z,97.7
2019-05-10T13:13:03.278Z,98.9
2019-05-10T13:14:09.913Z,99.6
2019-05-10T13:15:02.942Z,100.1
2019-05-10T13:16:12.155Z,101.2
2019-05-10T13:17:14.275Z,98.7
2019-05-10T13:18:03.922Z,98.4
2019-05-10T13:19:03.274Z,97.7
2019-05-10T13:20:03.853Z,98.7
2019-05-10T13:21:23.193Z,97.5
2019-05-10T13:22:07.760Z,99.4
2019-05-10T13:23:03.814Z,99.1
2019-05-10T13:24:03.838Z,99.8
2019-05-10T13:25:03.727Z,98.2
2019-05-10T13:26:03.630Z,99.8
2019-05-10T13:27:03.886Z,98.9
2019-05-10T13:28:03.519Z,100.3
2019-05-10T13:29:10.768Z,99.1
2019-05-10T13:30:03.782Z,99.6
2019-05-10T13:31:07.425Z,98.7
2019-05-10T13:32:03.399Z,98.7
2019-05-10T13:33:03.633Z,100.3
2019-05-10T13:34:03.113Z,99.4
2019-05-10T13:35:03.598Z,100.1
2019-05-10T13:36:03.407Z,99.8
2019-05-10T13:37:03.645Z,100.3
2019-05-10T13:38:06.783Z,100.1
2019-05-10T13:39:03.489Z,101.2
2019-05-10T13:40:08.781Z,101
2019-05-10T13:41:02.156Z,102.6
2019-05-10T13:42:09.652Z,102.4
2019-05-10T13:43:02.859Z,103.8
2019-05-10T13:44:06.698Z,103.3
2019-05-10T13:45:04.204Z,105
2019-05-10T13:46:03.476Z,105
2019-05-10T13:47:05.519Z,104.7
2019-05-10T13:48:03.767Z,104.5
2019-05-10T13:49:03.763Z,104
2019-05-10T13:50:03.240Z,102.4
2019-05-10T13:51:04.009Z,101.7
2019-05-10T13:52:03.789Z,101.9
2019-05-10T13:53:03.769Z,101.9
2019-05-10T13:54:05.746Z,102.6
2019-05-10T13:55:03.901Z,102.9
2019-05-10T13:56:03.563Z,104.3
2019-05-10T13:57:03.516Z,104.5
2019-05-10T13:58:03.251Z,105.7
2019-05-10T13:59:18.276Z,105.7
2019-05-10T14:01:15.117Z,104.3
2019-05-10T14:03:13.722Z,103.8
2019-05-10T14:04:03.861Z,105.2
2019-05-10T14:05:03.438Z,106.6
2019-05-10T14:06:03.468Z,105.2
2019-05-10T14:07:03.315Z,105.7
2019-05-10T14:08:03.077Z,104.3
2019-05-10T14:09:03.182Z,106.1
2019-05-10T14:10:03.522Z,105
2019-05-10T14:11:03.616Z,105
2019-05-10T14:12:02.928Z,105.2
2019-05-10T14:13:04.345Z,103.3
2019-05-10T14:14:03.225Z,104
2019-05-10T14:15:14.019Z,105.4
2019-05-10T14:17:02.822Z,102.2
2019-05-10T14:18:03.395Z,104
2019-05-10T14:19:03.361Z,103.6